createdAt,value
2019-02-03T00:00:59.080Z,4.71
2019-02-03T00:01:59.305Z,4.62
2019-02-03T00:02:59.517Z,4.53
2019-02-03T00:03:59.735Z,4.60
2019-02-03T00:04:59.958Z,4.67
2019-02-03T00:06:00.192Z,4.63
2019-02-03T00:07:03.511Z,4.55
2019-02-03T00:08:00.633Z,4.52
2019-02-03T00:09:00.847Z,4.52
2019-02-03T00:10:01.064Z,4.58
2019-02-03T00:11:01.285Z,4.56
2019-02-03T00:12:01.514Z,4.63
2019-02-03T00:13:01.722Z,4.62
2019-02-03T00:14:01.936Z,4.55
2019-02-03T00:15:02.308Z,4.62
2019-02-03T00:16:02.384Z,4.71
2019-02-03T00:17:02.604Z,4.71
2019-02-03T00:18:02.824Z,4.67
2019-02-03T00:19:03.045Z,4.66
2019-02-03T00:20:03.255Z,4.62
2019-02-03T00:21:03.478Z,4.52
2019-02-03T00:22:03.696Z,4.62
2019-02-03T00:23:03.916Z,4.58
2019-02-03T00:24:04.134Z,4.56
2019-02-03T00:25:04.354Z,4.55
2019-02-03T00:26:04.581Z,4.59
2019-02-03T00:27:04.802Z,4.45
2019-02-03T00:28:05.117Z,4.40
2019-02-03T00:29:05.244Z,4.35
2019-02-03T00:30:05.460Z,4.38
2019-02-03T00:31:05.681Z,4.45
2019-02-03T00:32:05.902Z,4.45
2019-02-03T00:33:06.124Z,4.49
2019-02-03T00:34:06.344Z,4.42
2019-02-03T00:35:06.571Z,4.52
2019-02-03T00:36:06.791Z,4.58
2019-02-03T00:37:15.289Z,4.63
2019-02-03T00:38:07.280Z,4.49
2019-02-03T00:39:07.541Z,4.58
2019-02-03T00:40:07.768Z,4.53
2019-02-03T00:41:07.975Z,4.50
2019-02-03T00:42:08.113Z,4.50
2019-02-03T00:43:08.335Z,4.45
2019-02-03T00:44:08.553Z,4.31
2019-02-03T00:45:08.773Z,4.24
2019-02-03T00:46:08.994Z,4.26
2019-02-03T00:47:09.213Z,4.19
2019-02-03T00:48:09.437Z,4.14
2019-02-03T00:49:09.656Z,4.08
2019-02-03T00:50:09.876Z,4.17
2019-02-03T00:51:10.132Z,4.10
2019-02-03T00:52:10.309Z,4.13
2019-02-03T00:53:10.530Z,4.13
2019-02-03T00:54:10.748Z,4.12
2019-02-03T00:55:10.970Z,4.17
2019-02-03T00:56:11.198Z,4.26
2019-02-03T00:57:11.409Z,4.19
2019-02-03T00:58:11.627Z,4.23
2019-02-03T00:59:11.847Z,4.19
2019-02-03T01:00:12.065Z,4.22
2019-02-03T01:01:12.313Z,4.28
2019-02-03T01:02:12.506Z,4.22
2019-02-03T01:03:12.729Z,4.19
2019-02-03T01:04:12.951Z,4.13
2019-02-03T01:05:13.167Z,4.17
2019-02-03T01:06:13.391Z,4.14
2019-02-03T01:07:13.610Z,4.20
2019-02-03T01:08:13.826Z,4.17
2019-02-03T01:09:14.045Z,4.20
2019-02-03T01:10:14.268Z,4.02
2019-02-03T01:11:14.476Z,4.04
2019-02-03T01:12:14.697Z,4.13
2019-02-03T01:13:14.913Z,4.10
2019-02-03T01:14:15.138Z,4.16
2019-02-03T01:15:15.364Z,4.05
2019-02-03T01:16:15.580Z,4.17
2019-02-03T01:17:15.797Z,4.19
2019-02-03T01:18:16.040Z,4.26
2019-02-03T01:19:16.236Z,4.20
2019-02-03T01:20:16.454Z,4.30
2019-02-03T01:21:16.678Z,4.30
2019-02-03T01:22:16.877Z,4.30
2019-02-03T01:23:17.099Z,4.38
2019-02-03T01:24:17.319Z,4.16
2019-02-03T01:25:17.535Z,4.23
2019-02-03T01:26:17.754Z,4.16
2019-02-03T01:27:17.974Z,4.23
2019-02-03T01:28:18.188Z,4.16
2019-02-03T01:29:18.408Z,4.20
2019-02-03T01:30:18.631Z,4.19
2019-02-03T01:31:18.847Z,4.26
2019-02-03T01:32:19.070Z,4.31
2019-02-03T01:33:19.291Z,4.34
2019-02-03T01:34:19.509Z,4.23
2019-02-03T01:35:19.728Z,4.32
2019-02-03T01:36:19.957Z,4.28
2019-02-03T01:37:20.169Z,4.13
2019-02-03T01:38:20.387Z,4.26
2019-02-03T01:39:20.608Z,4.20
2019-02-03T01:40:20.827Z,4.23
2019-02-03T01:41:21.065Z,4.37
2019-02-03T01:42:21.260Z,4.35
2019-02-03T01:43:21.486Z,4.32
2019-02-03T01:44:23.161Z,4.31
2019-02-03T01:45:21.913Z,4.28
2019-02-03T01:46:22.125Z,4.23
2019-02-03T01:47:22.361Z,4.31
2019-02-03T01:48:22.549Z,4.31
2019-02-03T01:49:22.813Z,4.28
2019-02-03T01:50:23.016Z,4.32
2019-02-03T01:51:23.227Z,4.19
2019-02-03T01:52:23.478Z,3.99
2019-02-03T01:53:23.658Z,4.02
2019-02-03T01:54:23.876Z,4.01
2019-02-03T01:55:24.085Z,4.01
2019-02-03T01:56:24.345Z,4.02
2019-02-03T01:57:24.553Z,4.01
2019-02-03T01:58:24.737Z,3.87
2019-02-03T01:59:24.956Z,3.94
2019-02-03T02:00:25.185Z,3.98
2019-02-03T02:01:25.388Z,3.96
2019-02-03T02:02:25.603Z,3.91
2019-02-03T02:03:25.845Z,3.91
2019-02-03T02:04:26.062Z,3.88
2019-02-03T02:05:26.284Z,3.84
2019-02-03T02:06:26.500Z,3.86
2019-02-03T02:07:26.761Z,3.81
2019-02-03T02:08:26.931Z,3.78
2019-02-03T02:09:27.171Z,3.86
2019-02-03T02:10:27.414Z,3.84
2019-02-03T02:11:27.579Z,3.84
2019-02-03T02:12:27.827Z,3.77
2019-02-03T02:13:27.997Z,3.87
2019-02-03T02:14:28.209Z,3.76
2019-02-03T02:15:28.443Z,3.73
2019-02-03T02:16:28.666Z,3.83
2019-02-03T02:17:28.895Z,3.69
2019-02-03T02:18:29.088Z,3.69
2019-02-03T02:19:29.285Z,3.70
2019-02-03T02:20:29.529Z,3.65
2019-02-03T02:21:29.733Z,3.62
2019-02-03T02:22:29.936Z,3.53
2019-02-03T02:23:30.144Z,3.62
2019-02-03T02:24:30.355Z,3.48
2019-02-03T02:25:30.688Z,3.51
2019-02-03T02:26:30.812Z,3.55
2019-02-03T02:27:30.990Z,3.42
2019-02-03T02:28:31.242Z,3.42
2019-02-03T02:29:31.443Z,3.47
2019-02-03T02:30:31.714Z,3.41
2019-02-03T02:31:31.917Z,3.45
2019-02-03T02:32:32.093Z,3.45
2019-02-03T02:33:32.313Z,3.51
2019-02-03T02:34:32.540Z,3.59
2019-02-03T02:35:32.764Z,3.55
2019-02-03T02:36:32.955Z,3.58
2019-02-03T02:37:33.167Z,3.56
2019-02-03T02:38:33.414Z,3.51
2019-02-03T02:39:35.431Z,3.56
2019-02-03T02:40:33.799Z,3.48
2019-02-03T02:41:34.030Z,3.51
2019-02-03T02:42:34.263Z,3.48
2019-02-03T02:43:34.505Z,3.66
2019-02-03T02:44:34.741Z,3.62
2019-02-03T02:45:34.899Z,3.60
2019-02-03T02:46:35.137Z,3.60
2019-02-03T02:47:35.331Z,3.51
2019-02-03T02:48:35.587Z,3.56
2019-02-03T02:49:35.806Z,3.48
2019-02-03T02:50:36.051Z,3.51
2019-02-03T02:51:36.266Z,3.47
2019-02-03T02:52:36.516Z,3.55
2019-02-03T02:53:36.655Z,3.45
2019-02-03T02:54:36.914Z,3.42
2019-02-03T02:55:37.102Z,3.44
2019-02-03T02:56:37.338Z,3.51
2019-02-03T02:57:37.549Z,3.62
2019-02-03T02:58:37.742Z,3.47
2019-02-03T02:59:37.962Z,3.55
2019-02-03T03:00:38.185Z,3.51
2019-02-03T03:01:38.378Z,3.44
2019-02-03T03:02:38.598Z,3.45
2019-02-03T03:03:38.821Z,3.45
2019-02-03T03:04:39.084Z,3.48
2019-02-03T03:05:39.287Z,3.47
2019-02-03T03:06:39.450Z,3.48
2019-02-03T03:07:39.686Z,3.44
2019-02-03T03:08:39.883Z,3.47
2019-02-03T03:09:40.124Z,3.53
2019-02-03T03:10:40.358Z,3.56
2019-02-03T03:11:40.526Z,3.66
2019-02-03T03:12:40.772Z,3.69
2019-02-03T03:13:40.977Z,3.65
2019-02-03T03:14:41.209Z,3.59
2019-02-03T03:15:41.445Z,3.62
2019-02-03T03:16:41.678Z,3.70
2019-02-03T03:17:41.904Z,3.74
2019-02-03T03:18:42.107Z,3.70
2019-02-03T03:19:42.316Z,3.69
2019-02-03T03:20:42.544Z,3.65
2019-02-03T03:21:42.756Z,3.56
2019-02-03T03:22:42.956Z,3.65
2019-02-03T03:23:43.198Z,3.56
2019-02-03T03:24:43.382Z,3.53
2019-02-03T03:25:43.660Z,3.59
2019-02-03T03:26:43.858Z,3.48
2019-02-03T03:27:44.027Z,3.58
2019-02-03T03:28:44.265Z,3.58
2019-02-03T03:29:44.453Z,3.50
2019-02-03T03:30:44.732Z,3.55
2019-02-03T03:31:44.893Z,3.51
2019-02-03T03:32:45.103Z,3.50
2019-02-03T03:33:45.352Z,3.51
2019-02-03T03:34:45.519Z,3.51
2019-02-03T03:35:45.765Z,3.56
2019-02-03T03:36:45.962Z,3.60
2019-02-03T03:37:46.164Z,3.56
2019-02-03T03:38:46.417Z,3.60
2019-02-03T03:39:46.686Z,3.58
2019-02-03T03:40:46.799Z,3.62
2019-02-03T03:41:47.061Z,3.60
2019-02-03T03:42:47.225Z,3.60
2019-02-03T03:43:47.447Z,3.60
2019-02-03T03:44:47.669Z,3.58
2019-02-03T03:45:47.865Z,3.58
2019-02-03T03:46:48.090Z,3.69
2019-02-03T03:47:48.305Z,3.60
2019-02-03T03:48:48.539Z,3.66
2019-02-03T03:49:48.745Z,3.59
2019-02-03T03:50:48.951Z,3.56
2019-02-03T03:51:49.178Z,3.65
2019-02-03T03:52:49.388Z,3.63
2019-02-03T03:53:49.587Z,3.56
2019-02-03T03:54:49.863Z,3.50
2019-02-03T03:55:50.012Z,3.47
2019-02-03T03:56:50.245Z,3.47
2019-02-03T03:57:50.455Z,3.59
2019-02-03T03:58:50.652Z,3.44
2019-02-03T03:59:50.907Z,3.51
2019-02-03T04:00:51.092Z,3.56
2019-02-03T04:01:51.306Z,3.55
2019-02-03T04:02:51.519Z,3.47
2019-02-03T04:03:51.734Z,3.53
2019-02-03T04:04:51.958Z,3.50
2019-02-03T04:05:52.154Z,3.51
2019-02-03T04:06:52.347Z,3.53
2019-02-03T04:07:52.602Z,3.47
2019-02-03T04:08:52.782Z,3.50
2019-02-03T04:09:52.991Z,3.56
2019-02-03T04:10:53.250Z,3.50
2019-02-03T04:11:53.447Z,3.48
2019-02-03T04:12:53.698Z,3.50
2019-02-03T04:13:53.894Z,3.44
2019-02-03T04:14:54.147Z,3.53
2019-02-03T04:15:54.372Z,3.42
2019-02-03T04:16:54.537Z,3.55
2019-02-03T04:17:54.766Z,3.50
2019-02-03T04:18:54.995Z,3.55
2019-02-03T04:19:55.191Z,3.62
2019-02-03T04:20:55.390Z,3.56
2019-02-03T04:21:55.626Z,3.53
2019-02-03T04:22:55.876Z,3.55
2019-02-03T04:23:56.072Z,3.55
2019-02-03T04:24:56.270Z,3.53
2019-02-03T04:25:56.534Z,3.56
2019-02-03T04:26:56.710Z,3.44
2019-02-03T04:27:56.970Z,3.48
2019-02-03T04:28:57.186Z,3.47
2019-02-03T04:29:57.333Z,3.50
2019-02-03T04:30:57.559Z,3.51
2019-02-03T04:31:57.762Z,3.62
2019-02-03T04:32:57.958Z,3.68
2019-02-03T04:33:58.231Z,3.59
2019-02-03T04:34:58.412Z,3.66
2019-02-03T04:35:58.642Z,3.60
2019-02-03T04:36:58.889Z,3.60
2019-02-03T04:37:59.060Z,3.59
2019-02-03T04:38:59.303Z,3.62
2019-02-03T04:39:59.517Z,3.63
2019-02-03T04:40:59.696Z,3.68
2019-02-03T04:41:59.957Z,3.59
2019-02-03T04:43:00.165Z,3.63
2019-02-03T04:44:00.362Z,3.56
2019-02-03T04:45:00.597Z,3.60
2019-02-03T04:46:00.801Z,3.58
2019-02-03T04:47:01.029Z,3.58
2019-02-03T04:48:01.236Z,3.47
2019-02-03T04:49:01.487Z,3.47
2019-02-03T04:50:01.676Z,3.44
2019-02-03T04:51:01.861Z,3.41
2019-02-03T04:52:02.082Z,3.40
2019-02-03T04:53:02.317Z,3.34
2019-02-03T04:54:02.509Z,3.47
2019-02-03T04:55:02.752Z,3.51
2019-02-03T04:56:02.915Z,3.50
2019-02-03T04:57:03.157Z,3.42
2019-02-03T04:58:03.359Z,3.29
2019-02-03T04:59:03.558Z,3.40
2019-02-03T05:00:03.804Z,3.31
2019-02-03T05:01:03.979Z,3.26
2019-02-03T05:02:04.233Z,3.40
2019-02-03T05:03:04.466Z,3.29
2019-02-03T05:04:04.610Z,3.44
2019-02-03T05:05:04.863Z,3.42
2019-02-03T05:06:05.053Z,3.31
2019-02-03T05:07:05.256Z,3.13
2019-02-03T05:08:05.513Z,3.13
2019-02-03T05:09:11.121Z,3.07
2019-02-03T05:10:05.907Z,3.19
2019-02-03T05:11:06.125Z,3.19
2019-02-03T05:12:06.300Z,3.13
2019-02-03T05:13:06.559Z,3.16
2019-02-03T05:14:06.795Z,3.10
2019-02-03T05:15:07.050Z,3.11
2019-02-03T05:16:07.224Z,3.07
2019-02-03T05:17:07.392Z,3.13
2019-02-03T05:18:07.613Z,3.03
2019-02-03T05:19:07.852Z,3.07
2019-02-03T05:20:08.023Z,3.14
2019-02-03T05:21:08.251Z,3.07
2019-02-03T05:22:08.486Z,3.19
2019-02-03T05:23:08.724Z,3.19
2019-02-03T05:24:08.968Z,3.00
2019-02-03T05:25:09.170Z,3.04
2019-02-03T05:26:09.366Z,2.97
2019-02-03T05:27:09.614Z,2.97
2019-02-03T05:28:09.876Z,3.07
2019-02-03T05:29:10.040Z,3.01
2019-02-03T05:30:10.281Z,3.01
2019-02-03T05:31:10.535Z,3.01
2019-02-03T05:32:10.711Z,3.05
2019-02-03T05:33:10.947Z,3.10
2019-02-03T05:34:11.205Z,3.13
2019-02-03T05:35:11.400Z,3.21
2019-02-03T05:36:11.646Z,3.10
2019-02-03T05:37:11.848Z,3.01
2019-02-03T05:38:12.037Z,3.10
2019-02-03T05:39:23.891Z,3.05
2019-02-03T05:40:12.448Z,3.13
2019-02-03T05:41:12.675Z,3.03
2019-02-03T05:42:12.924Z,2.95
2019-02-03T05:43:13.090Z,2.87
2019-02-03T05:44:13.322Z,2.97
2019-02-03T05:45:13.549Z,2.98
2019-02-03T05:46:13.734Z,2.92
2019-02-03T05:47:13.960Z,2.93
2019-02-03T05:48:14.161Z,2.93
2019-02-03T05:49:14.405Z,2.95
2019-02-03T05:50:14.631Z,2.89
2019-02-03T05:51:14.785Z,2.90
2019-02-03T05:52:14.997Z,2.92
2019-02-03T05:53:15.217Z,2.85
2019-02-03T05:54:15.523Z,2.93
2019-02-03T05:55:15.660Z,2.85
2019-02-03T05:56:15.881Z,2.79
2019-02-03T05:57:16.152Z,2.92
2019-02-03T05:58:16.313Z,2.93
2019-02-03T05:59:16.516Z,2.89
2019-02-03T06:00:16.746Z,2.86
2019-02-03T06:01:16.946Z,2.86
2019-02-03T06:02:17.169Z,2.90
2019-02-03T06:03:17.383Z,2.87
2019-02-03T06:04:17.598Z,2.90
2019-02-03T06:05:17.827Z,2.92
2019-02-03T06:06:18.032Z,2.98
2019-02-03T06:07:18.217Z,2.92
2019-02-03T06:08:18.443Z,2.92
2019-02-03T06:09:18.664Z,3.00
2019-02-03T06:10:18.907Z,3.03
2019-02-03T06:11:19.141Z,2.93
2019-02-03T06:12:19.301Z,3.04
2019-02-03T06:13:19.574Z,2.95
2019-02-03T06:14:19.729Z,2.87
2019-02-03T06:15:19.972Z,2.92
2019-02-03T06:16:20.160Z,2.90
2019-02-03T06:17:20.385Z,2.86
2019-02-03T06:18:20.625Z,2.92
2019-02-03T06:19:20.786Z,2.83
2019-02-03T06:20:21.070Z,2.82
2019-02-03T06:21:21.248Z,2.82
2019-02-03T06:22:21.423Z,2.93
2019-02-03T06:23:21.685Z,2.87
2019-02-03T06:24:21.911Z,2.87
2019-02-03T06:25:22.052Z,2.85
2019-02-03T06:26:22.342Z,2.87
2019-02-03T06:27:22.480Z,2.89
2019-02-03T06:28:22.732Z,2.87
2019-02-03T06:29:22.911Z,2.97
2019-02-03T06:30:23.111Z,3.00
2019-02-03T06:31:23.396Z,2.87
2019-02-03T06:32:23.545Z,2.82
2019-02-03T06:33:23.807Z,2.90
2019-02-03T06:34:23.964Z,2.90
2019-02-03T06:35:24.182Z,2.89
2019-02-03T06:36:24.426Z,3.04
2019-02-03T06:37:24.624Z,2.98
2019-02-03T06:38:24.826Z,2.90
2019-02-03T06:39:25.061Z,3.00
2019-02-03T06:40:25.221Z,3.05
2019-02-03T06:41:25.498Z,2.97
2019-02-03T06:42:25.673Z,2.93
2019-02-03T06:43:26.499Z,3.10
2019-02-03T06:44:26.160Z,3.04
2019-02-03T06:45:26.359Z,3.01
2019-02-03T06:46:26.534Z,3.01
2019-02-03T06:47:26.793Z,2.90
2019-02-03T06:48:26.946Z,2.85
2019-02-03T06:49:27.174Z,2.92
2019-02-03T06:50:27.394Z,2.86
2019-02-03T06:51:27.590Z,2.83
2019-02-03T06:52:27.825Z,2.85
2019-02-03T06:53:28.029Z,2.85
2019-02-03T06:54:28.245Z,2.97
2019-02-03T06:55:28.461Z,2.93
2019-02-03T06:56:28.674Z,3.00
2019-02-03T06:57:28.899Z,2.98
2019-02-03T06:58:29.108Z,2.93
2019-02-03T06:59:29.287Z,2.95
2019-02-03T07:00:29.580Z,3.08
2019-02-03T07:01:29.666Z,3.11
2019-02-03T07:02:29.884Z,3.11
2019-02-03T07:03:30.115Z,3.16
2019-02-03T07:04:30.296Z,3.11
2019-02-03T07:05:30.573Z,3.13
2019-02-03T07:06:30.748Z,3.14
2019-02-03T07:07:30.985Z,3.08
2019-02-03T07:08:31.207Z,3.03
2019-02-03T07:09:31.373Z,3.00
2019-02-03T07:10:31.590Z,3.01
2019-02-03T07:11:31.829Z,3.00
2019-02-03T07:12:32.003Z,3.10
2019-02-03T07:13:32.262Z,3.10
2019-02-03T07:14:32.439Z,3.10
2019-02-03T07:15:32.675Z,3.18
2019-02-03T07:16:40.605Z,3.25
2019-02-03T07:17:33.076Z,3.14
2019-02-03T07:18:33.343Z,3.10
2019-02-03T07:19:33.506Z,3.16
2019-02-03T07:20:33.752Z,3.05
2019-02-03T07:21:33.981Z,3.00
2019-02-03T07:22:34.147Z,3.05
2019-02-03T07:23:34.393Z,3.03
2019-02-03T07:24:34.611Z,3.00
2019-02-03T07:25:34.798Z,3.05
2019-02-03T07:26:35.057Z,3.05
2019-02-03T07:27:35.208Z,3.01
2019-02-03T07:28:35.424Z,3.01
2019-02-03T07:29:35.623Z,2.98
2019-02-03T07:30:35.868Z,2.89
2019-02-03T07:31:36.081Z,2.97
2019-02-03T07:32:36.298Z,2.87
2019-02-03T07:33:36.522Z,2.95
2019-02-03T07:34:36.724Z,2.87
2019-02-03T07:35:36.935Z,2.92
2019-02-03T07:36:37.154Z,2.95
2019-02-03T07:37:37.373Z,3.07
2019-02-03T07:38:37.590Z,3.01
2019-02-03T07:39:37.822Z,2.93
2019-02-03T07:40:38.018Z,2.89
2019-02-03T07:41:38.249Z,2.97
2019-02-03T07:42:38.463Z,3.03
2019-02-03T07:43:38.643Z,2.87
2019-02-03T07:44:38.907Z,2.98
2019-02-03T07:45:39.083Z,3.05
2019-02-03T07:46:39.330Z,3.00
2019-02-03T07:47:39.547Z,3.03
2019-02-03T07:48:39.741Z,2.98
2019-02-03T07:49:39.923Z,3.04
2019-02-03T07:50:40.199Z,2.92
2019-02-03T07:51:40.350Z,2.97
2019-02-03T07:52:40.604Z,3.01
2019-02-03T07:53:40.778Z,3.05
2019-02-03T07:54:41.039Z,3.00
2019-02-03T07:55:41.234Z,2.90
2019-02-03T07:56:41.459Z,2.98
2019-02-03T07:57:41.687Z,3.03
2019-02-03T07:58:41.896Z,3.10
2019-02-03T07:59:42.119Z,3.22
2019-02-03T08:00:42.336Z,3.08
2019-02-03T08:01:42.554Z,2.98
2019-02-03T08:02:42.772Z,3.03
2019-02-03T08:03:43.018Z,3.08
2019-02-03T08:04:43.213Z,3.04
2019-02-03T08:05:43.441Z,3.10
2019-02-03T08:06:43.637Z,3.07
2019-02-03T08:07:43.843Z,3.13
2019-02-03T08:08:44.057Z,3.05
2019-02-03T08:09:44.280Z,3.16
2019-02-03T08:10:44.483Z,3.05
2019-02-03T08:11:44.708Z,3.03
2019-02-03T08:12:44.887Z,3.03
2019-02-03T08:13:45.161Z,3.00
2019-02-03T08:14:45.347Z,2.93
2019-02-03T08:15:45.520Z,3.00
2019-02-03T08:16:45.730Z,3.04
2019-02-03T08:17:45.966Z,3.04
2019-02-03T08:18:46.171Z,3.04
2019-02-03T08:19:46.378Z,3.11
2019-02-03T08:20:46.612Z,3.22
2019-02-03T08:21:46.828Z,3.26
2019-02-03T08:22:47.027Z,3.16
2019-02-03T08:23:47.250Z,3.28
2019-02-03T08:24:47.459Z,3.37
2019-02-03T08:25:47.690Z,3.48
2019-02-03T08:26:47.897Z,3.50
2019-02-03T08:27:48.110Z,3.56
2019-02-03T08:28:48.319Z,3.59
2019-02-03T08:29:48.529Z,3.65
2019-02-03T08:30:48.748Z,3.68
2019-02-03T08:31:48.960Z,3.58
2019-02-03T08:32:49.170Z,3.60
2019-02-03T08:33:49.387Z,3.63
2019-02-03T08:34:49.593Z,3.48
2019-02-03T08:35:49.807Z,3.65
2019-02-03T08:36:50.042Z,3.60
2019-02-03T08:37:50.242Z,3.59
2019-02-03T08:38:50.452Z,3.65
2019-02-03T08:39:50.661Z,3.65
2019-02-03T08:40:50.888Z,3.66
2019-02-03T08:41:51.153Z,3.56
2019-02-03T08:42:51.405Z,3.63
2019-02-03T08:43:51.551Z,3.69
2019-02-03T08:44:51.766Z,3.63
2019-02-03T08:45:51.991Z,3.66
2019-02-03T08:46:52.268Z,3.66
2019-02-03T08:47:52.453Z,3.66
2019-02-03T08:48:52.624Z,3.66
2019-02-03T08:49:52.841Z,3.68
2019-02-03T08:50:53.065Z,3.63
2019-02-03T08:51:53.274Z,3.73
2019-02-03T08:52:53.505Z,3.69
2019-02-03T08:53:53.729Z,3.86
2019-02-03T08:54:58.299Z,3.91
2019-02-03T08:55:54.134Z,3.81
2019-02-03T08:56:54.349Z,3.73
2019-02-03T08:57:57.674Z,3.77
2019-02-03T08:58:54.785Z,3.84
2019-02-03T08:59:55.025Z,3.80
2019-02-03T09:00:55.214Z,3.78
2019-02-03T09:01:55.435Z,3.73
2019-02-03T09:02:55.661Z,3.62
2019-02-03T09:03:55.898Z,3.59
2019-02-03T09:04:56.088Z,3.70
2019-02-03T09:05:56.336Z,3.60
2019-02-03T09:06:57.851Z,3.70
2019-02-03T09:07:56.773Z,3.63
2019-02-03T09:08:56.997Z,3.60
2019-02-03T09:09:57.224Z,3.69
2019-02-03T09:10:57.433Z,3.70
2019-02-03T09:11:57.653Z,3.77
2019-02-03T09:12:57.874Z,3.81
2019-02-03T09:13:58.093Z,3.91
2019-02-03T09:14:58.308Z,3.73
2019-02-03T09:15:58.534Z,3.94
2019-02-03T09:16:58.768Z,3.78
2019-02-03T09:17:58.970Z,3.91
2019-02-03T09:18:59.190Z,3.73
2019-02-03T09:19:59.407Z,3.76
2019-02-03T09:20:59.621Z,3.70
2019-02-03T09:21:59.835Z,3.77
2019-02-03T09:23:00.051Z,3.81
2019-02-03T09:24:00.270Z,3.81
2019-02-03T09:25:00.486Z,3.74
2019-02-03T09:26:00.704Z,3.74
2019-02-03T09:27:00.925Z,3.83
2019-02-03T09:28:01.144Z,3.86
2019-02-03T09:29:01.358Z,3.86
2019-02-03T09:30:01.580Z,3.88
2019-02-03T09:31:01.792Z,3.84
2019-02-03T09:32:02.031Z,3.87
2019-02-03T09:33:02.227Z,3.94
2019-02-03T09:34:02.445Z,3.87
2019-02-03T09:35:02.663Z,3.94
2019-02-03T09:36:02.880Z,3.87
2019-02-03T09:37:03.094Z,4.01
2019-02-03T09:38:03.315Z,4.10
2019-02-03T09:39:03.530Z,4.20
2019-02-03T09:40:03.765Z,4.10
2019-02-03T09:41:03.963Z,4.14
2019-02-03T09:42:04.192Z,4.24
2019-02-03T09:43:04.410Z,4.31
2019-02-03T09:44:04.632Z,4.37
2019-02-03T09:45:04.855Z,4.34
2019-02-03T09:46:05.071Z,4.31
2019-02-03T09:47:05.308Z,4.26
2019-02-03T09:48:05.527Z,4.20
2019-02-03T09:49:05.743Z,3.94
2019-02-03T09:50:05.967Z,4.14
2019-02-03T09:51:06.193Z,4.08
2019-02-03T09:52:06.416Z,4.10
2019-02-03T09:53:06.639Z,4.08
2019-02-03T09:54:06.859Z,4.13
2019-02-03T09:55:07.156Z,4.10
2019-02-03T09:56:07.327Z,4.17
2019-02-03T09:57:07.480Z,4.30
2019-02-03T09:58:07.758Z,4.35
2019-02-03T09:59:07.972Z,4.48
2019-02-03T10:00:08.191Z,4.56
2019-02-03T10:01:08.479Z,4.77
2019-02-03T10:02:08.572Z,4.71
2019-02-03T10:03:08.793Z,4.71
2019-02-03T10:04:09.015Z,4.73
2019-02-03T10:05:09.233Z,4.75
2019-02-03T10:06:09.500Z,4.74
2019-02-03T10:07:09.678Z,4.80
2019-02-03T10:08:09.900Z,4.78
2019-02-03T10:09:10.126Z,4.86
2019-02-03T10:10:10.346Z,4.71
2019-02-03T10:11:12.041Z,4.77
2019-02-03T10:12:10.790Z,4.82
2019-02-03T10:13:11.011Z,4.80
2019-02-03T10:14:11.235Z,4.75
2019-02-03T10:15:11.450Z,4.71
2019-02-03T10:16:11.671Z,4.50
2019-02-03T10:17:11.928Z,4.55
2019-02-03T10:18:12.157Z,4.42
2019-02-03T10:19:12.397Z,4.53
2019-02-03T10:20:12.615Z,4.55
2019-02-03T10:21:12.844Z,4.56
2019-02-03T10:22:13.050Z,4.63
2019-02-03T10:23:13.295Z,4.59
2019-02-03T10:24:13.507Z,4.58
2019-02-03T10:25:13.728Z,4.59
2019-02-03T10:26:13.951Z,4.73
2019-02-03T10:27:14.166Z,4.71
2019-02-03T10:28:14.396Z,4.80
2019-02-03T10:29:14.615Z,4.71
2019-02-03T10:30:14.834Z,4.84
2019-02-03T10:31:15.052Z,4.84
2019-02-03T10:32:15.275Z,4.84
2019-02-03T10:33:15.496Z,4.89
2019-02-03T10:34:15.743Z,4.77
2019-02-03T10:35:22.967Z,4.86
2019-02-03T10:36:16.222Z,4.86
2019-02-03T10:37:16.420Z,4.84
2019-02-03T10:38:16.618Z,4.90
2019-02-03T10:39:16.846Z,4.92
2019-02-03T10:40:17.099Z,4.94
2019-02-03T10:41:24.144Z,5.02
2019-02-03T10:42:17.549Z,4.89
2019-02-03T10:43:17.785Z,4.87
2019-02-03T10:44:17.985Z,4.78
2019-02-03T10:45:18.205Z,4.70
2019-02-03T10:46:18.428Z,4.82
2019-02-03T10:47:18.643Z,4.63
2019-02-03T10:48:18.866Z,4.74
2019-02-03T10:49:19.081Z,4.77
2019-02-03T10:50:19.293Z,4.84
2019-02-03T10:51:19.509Z,4.97
2019-02-03T10:52:19.730Z,5.08
2019-02-03T10:53:19.956Z,5.11
2019-02-03T10:54:20.171Z,5.26
2019-02-03T10:55:20.393Z,5.17
2019-02-03T10:56:20.621Z,5.14
2019-02-03T10:57:20.831Z,5.17
2019-02-03T10:58:21.055Z,5.20
2019-02-03T10:59:21.270Z,5.14
2019-02-03T11:00:21.500Z,5.14
2019-02-03T11:01:21.706Z,4.92
2019-02-03T11:02:21.946Z,4.92
2019-02-03T11:03:22.155Z,4.92
2019-02-03T11:04:22.384Z,4.93
2019-02-03T11:05:22.599Z,4.93
2019-02-03T11:06:22.807Z,4.80
2019-02-03T11:07:23.030Z,4.84
2019-02-03T11:08:23.394Z,4.84
2019-02-03T11:09:23.478Z,5.00
2019-02-03T11:10:23.706Z,4.89
2019-02-03T11:11:36.160Z,4.94
2019-02-03T11:12:24.159Z,4.97
2019-02-03T11:13:24.371Z,5.05
2019-02-03T11:14:24.596Z,5.08
2019-02-03T11:15:24.818Z,5.10
2019-02-03T11:16:25.046Z,5.07
2019-02-03T11:17:25.266Z,5.21
2019-02-03T11:18:25.496Z,5.29
2019-02-03T11:19:25.716Z,5.33
2019-02-03T11:20:25.940Z,5.39
2019-02-03T11:21:26.160Z,5.46
2019-02-03T11:22:26.382Z,5.35
2019-02-03T11:23:26.601Z,5.33
2019-02-03T11:24:26.822Z,5.43
2019-02-03T11:25:27.044Z,5.48
2019-02-03T11:26:27.264Z,5.56
2019-02-03T11:27:27.495Z,5.54
2019-02-03T11:28:27.731Z,5.59
2019-02-03T11:29:27.943Z,5.64
2019-02-03T11:30:28.171Z,5.69
2019-02-03T11:31:28.404Z,5.64
2019-02-03T11:32:28.639Z,5.54
2019-02-03T11:33:28.845Z,5.65
2019-02-03T11:34:29.064Z,5.56
2019-02-03T11:35:29.282Z,5.56
2019-02-03T11:36:29.510Z,5.66
2019-02-03T11:37:29.742Z,5.30
2019-02-03T11:38:29.967Z,5.32
2019-02-03T11:39:30.192Z,5.14
2019-02-03T11:40:30.407Z,5.05
2019-02-03T11:41:30.705Z,4.99
2019-02-03T11:42:30.941Z,5.07
2019-02-03T11:43:31.043Z,5.14
2019-02-03T11:44:31.403Z,5.21
2019-02-03T11:45:31.571Z,5.17
2019-02-03T11:46:31.763Z,5.20
2019-02-03T11:47:31.932Z,5.28
2019-02-03T11:48:32.144Z,5.18
2019-02-03T11:49:32.328Z,5.25
2019-02-03T11:50:32.539Z,5.35
2019-02-03T11:51:32.675Z,5.36
2019-02-03T11:52:32.949Z,5.23
2019-02-03T11:53:33.175Z,5.44
2019-02-03T11:54:33.499Z,5.38
2019-02-03T11:55:33.687Z,5.18
2019-02-03T11:56:33.801Z,5.17
2019-02-03T11:57:34.036Z,5.15
2019-02-03T11:58:34.317Z,5.14
2019-02-03T11:59:34.681Z,5.08
2019-02-03T12:00:34.815Z,5.07
2019-02-03T12:01:35.051Z,4.97
2019-02-03T12:02:42.019Z,4.92
2019-02-03T12:03:35.682Z,4.93
2019-02-03T12:04:35.861Z,4.89
2019-02-03T12:05:35.964Z,4.97
2019-02-03T12:06:36.193Z,5.05
2019-02-03T12:07:36.446Z,5.10
2019-02-03T12:08:36.684Z,5.18
2019-02-03T12:09:36.909Z,5.18
2019-02-03T12:10:37.132Z,5.17
2019-02-03T12:11:37.409Z,5.04
2019-02-03T12:12:37.641Z,4.84
2019-02-03T12:13:37.890Z,4.82
2019-02-03T12:14:38.189Z,4.86
2019-02-03T12:15:38.303Z,4.80
2019-02-03T12:16:38.567Z,4.84
2019-02-03T12:17:38.885Z,4.84
2019-02-03T12:18:39.129Z,4.94
2019-02-03T12:19:39.272Z,4.89
2019-02-03T12:20:39.559Z,4.82
2019-02-03T12:21:39.735Z,4.84
2019-02-03T12:22:39.836Z,4.89
2019-02-03T12:23:40.150Z,4.97
2019-02-03T12:24:40.264Z,4.96
2019-02-03T12:25:40.510Z,4.82
2019-02-03T12:26:40.739Z,4.86
2019-02-03T12:27:41.072Z,4.97
2019-02-03T12:28:41.298Z,4.93
2019-02-03T12:29:41.467Z,4.84
2019-02-03T12:30:41.618Z,4.78
2019-02-03T12:31:41.923Z,4.89
2019-02-03T12:32:42.018Z,5.04
2019-02-03T12:33:42.298Z,5.08
2019-02-03T12:34:42.619Z,5.11
2019-02-03T12:35:42.808Z,5.18
2019-02-03T12:36:42.961Z,5.30
2019-02-03T12:37:43.199Z,5.38
2019-02-03T12:38:43.535Z,5.21
2019-02-03T12:39:43.721Z,5.21
2019-02-03T12:40:43.855Z,5.33
2019-02-03T12:41:44.154Z,5.44
2019-02-03T12:42:44.338Z,5.41
2019-02-03T12:43:44.634Z,5.39
2019-02-03T12:44:44.786Z,5.38
2019-02-03T12:45:44.935Z,5.28
2019-02-03T12:46:45.218Z,5.21
2019-02-03T12:47:45.383Z,5.18
2019-02-03T12:48:45.484Z,5.18
2019-02-03T12:49:45.743Z,5.29
2019-02-03T12:50:45.974Z,5.20
2019-02-03T12:51:46.977Z,5.18
2019-02-03T12:52:46.443Z,5.17
2019-02-03T12:53:46.669Z,5.23
2019-02-03T12:54:46.891Z,5.32
2019-02-03T12:55:47.117Z,5.18
2019-02-03T12:56:47.353Z,5.33
2019-02-03T12:57:47.577Z,5.36
2019-02-03T12:58:47.796Z,5.39
2019-02-03T12:59:48.025Z,5.35
2019-02-03T13:00:49.561Z,5.39
2019-02-03T13:01:48.532Z,5.20
2019-02-03T13:02:48.779Z,5.20
2019-02-03T13:03:49.008Z,5.25
2019-02-03T13:04:49.229Z,5.17
2019-02-03T13:05:49.502Z,5.07
2019-02-03T13:06:49.707Z,5.05
2019-02-03T13:07:49.949Z,5.00
2019-02-03T13:08:50.181Z,4.99
2019-02-03T13:09:50.431Z,5.21
2019-02-03T13:10:50.631Z,5.14
2019-02-03T13:11:50.849Z,5.23
2019-02-03T13:12:51.072Z,5.35
2019-02-03T13:13:51.397Z,5.39
2019-02-03T13:14:51.514Z,5.25
2019-02-03T13:15:51.727Z,5.33
2019-02-03T13:16:51.973Z,5.32
2019-02-03T13:17:52.200Z,5.25
2019-02-03T13:18:52.426Z,5.14
2019-02-03T13:19:52.667Z,5.11
2019-02-03T13:20:52.888Z,4.89
2019-02-03T13:21:53.116Z,4.99